OIZHOIMM

Guest
Details From OIZH - Zahedan Intl
To OIMM - Mashhad Intl
Flight Number -
Tags Generated
Created
Modified
Stats Distance 411 nm / 761 km
Max Altitude 0 ft / 0 m
Waypoints 3
Social Downloads 2
Likes 0
Share VATSIM

Download

Looking for another format? Having issues loading an existing format? Contact us
Advertisement - Login to hide

Notes

Generated

Route

OIZH MSD OIMM

ID Type Via Altitude Latitude Longitude Leg Dist Tot Dist Heading (true) Name
O OIZH APT - 0 ft / 0 m 29.49487˚ 60.90469˚ - 0 nm - -
MSD NDB - 0 ft / 0 m 36.22861˚ 59.63719˚ 409 nm 409 nm 351° / 351° MASHHAD NDB
O OIMM APT - 0 ft / 0 m 36.24779˚ 59.62642˚ 1 nm 410 nm 336° / 336° -

Altitude Profile

Advertisement - Login to hide

Weather


0- 5 10 15 20 25 30 35+ Temperature / ° C

Clouds and Precipitation
Forecast for 2017-12-14 00:00 UTC. Updated 2 hours ago

Ground ~20,000 ft ~40,000 ft Winds

OIZH

Details ICAO OIZH (ZAH)
Name ZAHEDAN INTL
Region Iran
Timezone Asia/Tehran (UTC+3.5)
Stats Elevation 4,564 ft / 1,391 m (AMSL)
Location 29.475684° 60.906190°
Runways 2
Magnetic Variation 2.419° E

METAR

OIZH 132300Z 18004KT CAVOK M02/M17 Q1021 A3015

Decode

TAF

TAF OIZH 131730Z 1318/1424 32004MPS 8000 NSC TEMPO 1403/1412 12005MPS

Decode

Departure Runways

ID Width Length Bearing (true) Bearing (mag) Surface Threshold Offset Overrun Length
17 148 ft / 45 m 14,040 ft / 4,280 m 172.89° 170.47° Asphalt 0 ft / 0 m 1,034 ft / 315 m
17L 98 ft / 30 m 13,995 ft / 4,266 m 172.89° 170.47° Asphalt 0 ft / 0 m 1,221 ft / 372 m
35 148 ft / 45 m 14,040 ft / 4,280 m 352.89° 350.47° Asphalt 886 ft / 270 m 1,190 ft / 363 m
35R 98 ft / 30 m 13,995 ft / 4,266 m 352.90° 350.48° Asphalt 0 ft / 0 m 1,194 ft / 364 m

OIMM

Details ICAO OIMM (MHD)
Name MASHHAD INTL
Region Iran
Timezone Asia/Tehran (UTC+3.5)
Stats Elevation 3,263 ft / 995 m (AMSL)
Location 36.235258° 59.640976°
Runways 2
Magnetic Variation 4.337° E

METAR

OIMM 132300Z 10006KT 9999 BKN025 OVC090 00/M03 Q1023 A3022

Decode

TAF

TAF OIMM 131730Z 1318/1424 12004MPS 4000 SN BR BKN010 OVC070 TEMPO 1321/1404 1000 BKN005 PROB40 0500 FG BECMG 1405/1407 6000 FEW030 SCT100 TEMPO 1408/1415 07007MPS

Decode

Destination Runways

ID Width Length Bearing (true) Bearing (mag) Surface Threshold Offset Overrun Length
14L 148 ft / 45 m 12,506 ft / 3,812 m 133.72° 129.38° Asphalt 0 ft / 0 m 1,000 ft / 305 m
14R 148 ft / 45 m 12,880 ft / 3,926 m 133.72° 129.38° Asphalt 0 ft / 0 m 984 ft / 300 m
32L 148 ft / 45 m 12,880 ft / 3,926 m 313.74° 309.40° Asphalt 0 ft / 0 m 984 ft / 300 m
32R 148 ft / 45 m 12,506 ft / 3,812 m 313.74° 309.40° Asphalt 0 ft / 0 m 1,000 ft / 305 m

Approach Navaids

Runway Type Ident Frequency Range Bearing (true) Bearing (mag) Slope Elevation
32R Localiser IMSD 109.90 MHz 18 nm / 33 km 313.72° 309.38° - 3,263 ft / 995 m (AMSL)
32R Glidescope IMSD 109.90 MHz 10 nm / 19 km 313.73° 309.40° 3.00° 3,264 ft / 995 m (AMSL)
32R DME IMSD 109.90 MHz 18 nm / 33 km - - - 3,258 ft / 993 m (AMSL)

Popular Alternatives